Ocean Fresh — WDC4996 — position and weather

sailwx.info

Track history (hours):
 
Tides and Currents Weather Stations Pressure Air Temp Water Temp Dewpoint Dewpoint Depression Visibility Wind Speed Wind Dir Waves Ship Positions

Ocean Fresh

Owner: Ocean Fresh Seafood company, Seattle, WA. More information available from US FCC via Universal Licensing System and Coast Guard Vessel Documentation Center.

Last reported at 2017-Jun-18 08:08 UTC. Time now 2017-Jul-21 18:57 UTC.
Position N 58°20' W 136°05'.
Warning: this ship's position is 33 days out of date.

Length 67 m; draft 4.5 m.

Type: Ship (hazmat cat A). MMSI: 367773000.

Date/timePositionNaut miles runAvg speedWind from/ knotsBaromVisibWave heightAir tempDewpointWater temp
2017-Jun-18 08:08N 58°20' W 136°05'214.1
2017-Jun-18 08:00N 58°20' W 136°02'43610.2
2017-Jun-16 13:14N 52°29' W 128°27'312.6
2017-Jun-16 13:00N 52°26' W 128°29'611.7
2017-Jun-16 12:29N 52°20' W 128°30'511.3
2017-Jun-16 12:00N 52°16' W 128°25'611.3
2017-Jun-16 11:26N 52°14' W 128°14'6 8.3
2017-Jun-16 10:40N 52°09' W 128°08'1 9.3
2017-Jun-16 10:30N 52°08' W 128°08'4 7.7
2017-Jun-16 10:01N 52°05' W 128°04'5 8.5
2017-Jun-16 09:23N 52°04' W 127°56'512.4
2017-Jun-16 08:59N 51°59' W 127°56'612.4
2017-Jun-16 08:30N 51°53' W 127°57'611.4
2017-Jun-16 08:01N 51°47' W 127°56'612.2
2017-Jun-16 07:30N 51°41' W 127°55'612.5
2017-Jun-16 07:01N 51°35' W 127°53'611.8
2017-Jun-16 06:30N 51°29' W 127°51'611.7
2017-Jun-16 05:58N 51°23' W 127°52'811.5
2017-Jun-16 05:17N 51°15' W 127°52'311.1
2017-Jun-16 05:00N 51°12' W 127°51'9311.7
2017-Jun-15 21:04N 50°23' W 125°46'1313.6
2017-Jun-15 20:09N 50°20' W 125°27'211.1
2017-Jun-15 20:00N 50°19' W 125°25'613.2
2017-Jun-15 19:30N 50°13' W 125°22'713.8
2017-Jun-15 19:00N 50°07' W 125°18'714.7
2017-Jun-15 18:30N 50°00' W 125°13'612.6
2017-Jun-15 18:00N 49°56' W 125°05'612.3
2017-Jun-15 17:30N 49°51' W 124°59'612.4
2017-Jun-15 17:00N 49°47' W 124°52'612.7
2017-Jun-15 16:30N 49°44' W 124°44'612.7
2017-Jun-15 16:00N 49°40' W 124°36'712.8
2017-Jun-15 15:29N 49°36' W 124°27'1912.7
2017-Jun-15 14:00N 49°26' W 124°02'812.8
2017-Jun-15 13:24N 49°22' W 123°53'512.4
2017-Jun-15 12:59N 49°19' W 123°46'712.2
2017-Jun-15 12:27N 49°15' W 123°39'512.3
2017-Jun-15 12:00N 49°11' W 123°33'612.6
2017-Jun-15 11:30N 49°06' W 123°25'612.3
2017-Jun-15 11:00N 49°03' W 123°18'611.8
2017-Jun-15 10:30N 48°59' W 123°11'611.6
2017-Jun-15 10:00N 48°55' W 123°04'1511.9
2017-Jun-15 08:44N 48°46' W 122°47'210.8
2017-Jun-15 08:30N 48°44' W 122°45'510.1
2017-Jun-15 08:00N 48°39' W 122°43'5 9.9
2017-Jun-15 07:30N 48°34' W 122°45'611.4
2017-Jun-15 07:00N 48°28' W 122°44'711.8
2017-Jun-15 06:23N 48°21' W 122°45'411.1
2017-Jun-15 06:00N 48°17' W 122°47'8 9.8
2017-Jun-15 05:13N 48°10' W 122°43'311.9
2017-Jun-15 04:58N 48°07' W 122°40'511.0
2017-Jun-15 04:30N 48°02' W 122°38'510.3
2017-Jun-15 04:00N 47°58' W 122°34'510.6
2017-Jun-15 03:30N 47°54' W 122°28'611.2
2017-Jun-15 03:00N 47°49' W 122°26'611.4
2017-Jun-15 02:30N 47°43' W 122°26'510.6
2017-Jun-15 02:00N 47°38' W 122°25'1 3.0
2017-Jun-15 01:30N 47°38' W 122°23'0 0.0
2017-Jun-15 01:00N 47°38' W 122°23'0 0.0
2017-Jun-15 00:30N 47°38' W 122°23'0 0.0
2017-Jun-15 00:00N 47°38' W 122°23'0 0.0
2017-Jun-14 23:30N 47°38' W 122°23'0 0.0
2017-Jun-14 23:00N 47°38' W 122°23'0 0.0
2017-Jun-14 22:30N 47°38' W 122°23'0 0.0
2017-Jun-14 22:00N 47°38' W 122°23'0 0.0
2017-Jun-14 21:30N 47°38' W 122°23'0 0.0
2017-Jun-14 21:00N 47°38' W 122°23'0 0.0
2017-Jun-14 20:30N 47°38' W 122°23'0 0.0
2017-Jun-14 20:00N 47°38' W 122°23'0 0.0
2017-Jun-14 19:30N 47°38' W 122°23'0 0.0
2017-Jun-14 19:00N 47°38' W 122°23'0 0.0
2017-Jun-14 18:30N 47°38' W 122°23'0 0.0
2017-Jun-14 18:00N 47°38' W 122°23'0 0.0
2017-Jun-14 17:30N 47°38' W 122°23'0 0.0
2017-Jun-14 17:00N 47°38' W 122°23'0 0.0
2017-Jun-14 16:30N 47°38' W 122°23'0 0.0
2017-Jun-14 16:00N 47°38' W 122°23'0 0.0
2017-Jun-14 15:30N 47°38' W 122°23'0 0.0
2017-Jun-14 15:00N 47°38' W 122°23'0 0.0
2017-Jun-14 14:30N 47°38' W 122°23'0 0.0
2017-Jun-14 13:30N 47°38' W 122°23'0 0.0
2017-Jun-14 13:00N 47°38' W 122°23'0 0.0
2017-Jun-14 12:30N 47°38' W 122°23'0 0.0
2017-Jun-14 12:00N 47°38' W 122°23'0 0.0
2017-Jun-14 11:30N 47°38' W 122°23'0 0.0
2017-Jun-14 11:00N 47°38' W 122°23'0 0.0
2017-Jun-14 10:30N 47°38' W 122°23'0 0.0
2017-Jun-14 10:00N 47°38' W 122°23'0 0.0
2017-Jun-14 09:30N 47°38' W 122°23'0 0.0
2017-Jun-14 09:00N 47°38' W 122°23'0 0.0
2017-Jun-14 08:30N 47°38' W 122°23'0 0.0
2017-Jun-14 08:00N 47°38' W 122°23'0 0.0
2017-Jun-14 07:30N 47°38' W 122°23'0 0.0
2017-Jun-14 07:00N 47°38' W 122°23'0 0.1
2017-Jun-14 06:30N 47°38' W 122°23'0 0.1
2017-Jun-14 06:00N 47°38' W 122°23'0 0.0
2017-Jun-14 05:30N 47°38' W 122°23'0 0.0
2017-Jun-14 05:00N 47°38' W 122°23'0 0.0
2017-Jun-14 04:30N 47°38' W 122°23'0 0.0
2017-Jun-14 04:00N 47°38' W 122°23'0 0.0
2017-Jun-14 03:30N 47°38' W 122°23'0 0.0
2017-Jun-14 03:00N 47°38' W 122°23'0 0.0
2017-Jun-14 02:30N 47°38' W 122°23'0 0.0
2017-Jun-14 02:00N 47°38' W 122°23'0 0.0
2017-Jun-14 01:30N 47°38' W 122°23'0 0.0
2017-Jun-14 01:00N 47°38' W 122°23'0 0.0
2017-Jun-14 00:30N 47°38' W 122°23'0 0.0
2017-Jun-14 00:00N 47°38' W 122°23'0 0.0
2017-Jun-13 23:30N 47°38' W 122°23'0 0.0
2017-Jun-13 23:00N 47°38' W 122°23'0 0.0
2017-Jun-13 22:30N 47°38' W 122°23'0 0.0
2017-Jun-13 22:00N 47°38' W 122°23'0 0.0
2017-Jun-13 21:30N 47°38' W 122°23'0 0.1
2017-Jun-13 21:00N 47°38' W 122°23'0 0.1
2017-Jun-13 20:30N 47°38' W 122°23'0 0.0
2017-Jun-13 20:00N 47°38' W 122°23'0 0.0
2017-Jun-13 19:30N 47°38' W 122°23'0 0.0
2017-Jun-13 19:00N 47°38' W 122°23'0 0.1
2017-Jun-13 18:30N 47°38' W 122°23'0 0.1
2017-Jun-13 18:00N 47°38' W 122°23'0 0.0
2017-Jun-13 17:30N 47°38' W 122°23'0 0.0
2017-Jun-13 17:00N 47°38' W 122°23'0 0.0
2017-Jun-13 16:30N 47°38' W 122°23'0 0.0
2017-Jun-13 16:00N 47°38' W 122°23'0 0.0
2017-Jun-13 15:30N 47°38' W 122°23'0 0.0
2017-Jun-13 15:00N 47°38' W 122°23'0 0.0
2017-Jun-13 14:00N 47°38' W 122°23'0 0.0
2017-Jun-13 13:30N 47°38' W 122°23'0 0.0
2017-Jun-13 13:00N 47°38' W 122°23'0 0.0
2017-Jun-13 12:30N 47°38' W 122°23'0 0.0
2017-Jun-13 12:00N 47°38' W 122°23'0 0.0
2017-Jun-13 11:30N 47°38' W 122°23'0 0.0
2017-Jun-13 11:00N 47°38' W 122°23'0 0.0
2017-Jun-13 10:30N 47°38' W 122°23'0 0.0
2017-Jun-13 10:00N 47°38' W 122°23'0 0.0
2017-Jun-13 09:30N 47°38' W 122°23'0 0.0
2017-Jun-13 09:00N 47°38' W 122°23'0 0.0
2017-Jun-13 08:30N 47°38' W 122°23'0 0.0
2017-Jun-13 08:00N 47°38' W 122°23'0 0.0
2017-Jun-13 07:30N 47°38' W 122°23'0 0.0
2017-Jun-13 07:00N 47°38' W 122°23'0 0.0
2017-Jun-13 06:30N 47°38' W 122°23'0 0.0
2017-Jun-13 06:00N 47°38' W 122°23'0 0.0
2017-Jun-13 05:30N 47°38' W 122°23'0 0.0
2017-Jun-13 05:00N 47°38' W 122°23'0 0.0
2017-Jun-13 04:30N 47°38' W 122°23'0 0.1
2017-Jun-13 04:00N 47°38' W 122°23'0 0.1
2017-Jun-13 03:30N 47°38' W 122°23'0 0.0
2017-Jun-13 03:00N 47°38' W 122°23'0 0.0
2017-Jun-13 02:30N 47°38' W 122°23'0 0.0
2017-Jun-13 02:00N 47°38' W 122°23'0 0.1
2017-Jun-13 01:30N 47°38' W 122°23'0 0.1
2017-Jun-13 01:00N 47°38' W 122°23'0 0.0
2017-Jun-13 00:30N 47°38' W 122°23'0 0.0
2017-Jun-13 00:00N 47°38' W 122°23'0 0.0
2017-Jun-12 23:30N 47°38' W 122°23'0 0.0
2017-Jun-12 23:01N 47°38' W 122°23'0 0.0
2017-Jun-12 22:30N 47°38' W 122°23'0 0.0
2017-Jun-12 22:00N 47°38' W 122°23'0 0.0
2017-Jun-12 21:30N 47°38' W 122°23'0 0.0
2017-Jun-12 21:00N 47°38' W 122°23'0 0.0
2017-Jun-12 20:30N 47°38' W 122°23'0 0.1
2017-Jun-12 20:00N 47°38' W 122°23'0 0.1
2017-Jun-12 19:30N 47°38' W 122°23'0 0.0
2017-Jun-12 19:00N 47°38' W 122°23'0 0.0
2017-Jun-12 18:30N 47°38' W 122°23'0 0.1
2017-Jun-12 18:00N 47°38' W 122°23'0 0.1
2017-Jun-12 17:30N 47°38' W 122°23'0 0.0
2017-Jun-12 17:00N 47°38' W 122°23'0 0.0
2017-Jun-12 16:30N 47°38' W 122°23'0 0.0
2017-Jun-12 16:00N 47°38' W 122°23'0 0.1
2017-Jun-12 15:30N 47°38' W 122°23'0 0.1
2017-Jun-12 15:00N 47°38' W 122°23'0 0.0
2017-Jun-12 14:30N 47°38' W 122°23'0 0.0
2017-Jun-12 13:30N 47°38' W 122°23'0 0.0
2017-Jun-12 13:00N 47°38' W 122°23'0 0.0
2017-Jun-12 12:30N 47°38' W 122°23'0 0.0
2017-Jun-12 12:00N 47°38' W 122°23'0 0.0
2017-Jun-12 11:30N 47°38' W 122°23'0 0.1
2017-Jun-12 11:00N 47°38' W 122°23'0 0.1
2017-Jun-12 10:31N 47°38' W 122°23'0 0.0
2017-Jun-12 10:00N 47°38' W 122°23'0 0.0
2017-Jun-12 09:30N 47°38' W 122°23'0 0.0
2017-Jun-12 09:00N 47°38' W 122°23'0 0.0
2017-Jun-12 08:30N 47°38' W 122°23'0 0.0
2017-Jun-12 08:00N 47°38' W 122°23'0 0.0
2017-Jun-12 07:30N 47°38' W 122°23'0 0.0
2017-Jun-12 07:00N 47°38' W 122°23'0 0.0
2017-Jun-12 06:30N 47°38' W 122°23'0 0.0
2017-Jun-12 06:00N 47°38' W 122°23'0 0.0
2017-Jun-12 05:30N 47°38' W 122°23'0 0.0
2017-Jun-12 05:00N 47°38' W 122°23'0 0.0
2017-Jun-12 04:31N 47°38' W 122°23'0 0.0
2017-Jun-12 04:00N 47°38' W 122°23'0 0.0
2017-Jun-12 03:30N 47°38' W 122°23'0 0.0
2017-Jun-12 03:00N 47°38' W 122°23'0 0.0
2017-Jun-12 02:30N 47°38' W 122°23'0 0.0
2017-Jun-12 02:00N 47°38' W 122°23'0 0.0
2017-Jun-12 01:30N 47°38' W 122°23'0 0.0
2017-Jun-12 01:00N 47°38' W 122°23'0 0.0
2017-Jun-12 00:30N 47°38' W 122°23'0 0.1
2017-Jun-12 00:00N 47°38' W 122°23'0 0.1
2017-Jun-11 23:30N 47°38' W 122°23'0 0.0
2017-Jun-11 23:00N 47°38' W 122°23'0 0.0
2017-Jun-11 22:30N 47°38' W 122°23'0 0.0
2017-Jun-11 22:00N 47°38' W 122°23'0 0.1
2017-Jun-11 21:30N 47°38' W 122°23'0 0.1
2017-Jun-11 21:01N 47°38' W 122°23'0 0.0
2017-Jun-11 20:30N 47°38' W 122°23'0 0.0
2017-Jun-11 20:00N 47°38' W 122°23'0 0.0
2017-Jun-11 19:30N 47°38' W 122°23'0 0.1
2017-Jun-11 19:00N 47°38' W 122°23'0 0.1
2017-Jun-11 18:30N 47°38' W 122°23'0 0.0
2017-Jun-11 18:00N 47°38' W 122°23'0 0.0
2017-Jun-11 17:30N 47°38' W 122°23'0 0.0
2017-Jun-11 17:00N 47°38' W 122°23'0 0.0
2017-Jun-11 16:30N 47°38' W 122°23'0 0.0
2017-Jun-11 16:00N 47°38' W 122°23'0 0.0
2017-Jun-11 15:30N 47°38' W 122°23'0 0.0
2017-Jun-11 15:00N 47°38' W 122°23'0 0.0
2017-Jun-11 14:00N 47°38' W 122°23'0 0.0
2017-Jun-11 13:30N 47°38' W 122°23'0 0.0
2017-Jun-11 13:00N 47°38' W 122°23'0 0.0
2017-Jun-11 12:30N 47°38' W 122°23'0 0.0
2017-Jun-11 12:00N 47°38' W 122°23'0 0.0
2017-Jun-11 11:30N 47°38' W 122°23'0 0.0
2017-Jun-11 11:00N 47°38' W 122°23'0 0.0
2017-Jun-11 10:30N 47°38' W 122°23'0 0.0
2017-Jun-11 10:00N 47°38' W 122°23'0 0.0
2017-Jun-11 09:30N 47°38' W 122°23'0 0.0
2017-Jun-11 09:00N 47°38' W 122°23'0 0.0
2017-Jun-11 08:30N 47°38' W 122°23'0 0.0
2017-Jun-11 08:00N 47°38' W 122°23'0 0.0
2017-Jun-11 07:30N 47°38' W 122°23'0 0.0
2017-Jun-11 07:00N 47°38' W 122°23'0 0.0
2017-Jun-11 06:30N 47°38' W 122°23'0 0.0
2017-Jun-11 06:00N 47°38' W 122°23'0 0.0
2017-Jun-11 05:30N 47°38' W 122°23'0 0.0
2017-Jun-11 05:00N 47°38' W 122°23'0 0.0
2017-Jun-11 04:30N 47°38' W 122°23'0 0.0
2017-Jun-11 04:00N 47°38' W 122°23'0 0.0
2017-Jun-11 03:30N 47°38' W 122°23'0 0.0
2017-Jun-11 03:00N 47°38' W 122°23'0 0.0
2017-Jun-11 02:30N 47°38' W 122°23'0 0.0
2017-Jun-11 02:00N 47°38' W 122°23'0 0.0
2017-Jun-11 01:30N 47°38' W 122°23'0 0.1
2017-Jun-11 01:00N 47°38' W 122°23'0 0.1
2017-Jun-11 00:30N 47°38' W 122°23'0 0.0
2017-Jun-11 00:00N 47°38' W 122°23'0 0.0
2017-Jun-10 23:30N 47°38' W 122°23'0 0.0
2017-Jun-10 23:00N 47°38' W 122°23'0 0.0
2017-Jun-10 22:30N 47°38' W 122°23'0 0.1
2017-Jun-10 22:00N 47°38' W 122°23'0 0.1
2017-Jun-10 21:30N 47°38' W 122°23'0 0.0
2017-Jun-10 21:00N 47°38' W 122°23'0 0.0
2017-Jun-10 20:30N 47°38' W 122°23'0 0.0
2017-Jun-10 20:00N 47°38' W 122°23'0 0.0
2017-Jun-10 19:30N 47°38' W 122°23'0 0.0
2017-Jun-10 19:00N 47°38' W 122°23'0 0.1
2017-Jun-10 18:30N 47°38' W 122°23'0 0.1
2017-Jun-10 18:00N 47°38' W 122°23'0 0.0
2017-Jun-10 17:30N 47°38' W 122°23'0 0.0
2017-Jun-10 17:01N 47°38' W 122°23'0 0.0
2017-Jun-10 16:30N 47°38' W 122°23'0 0.0
2017-Jun-10 16:00N 47°38' W 122°23'0 0.0
2017-Jun-10 15:30N 47°38' W 122°23'0 0.0
2017-Jun-10 15:00N 47°38' W 122°23'0 0.0
2017-Jun-10 14:00N 47°38' W 122°23'0 0.0
2017-Jun-10 13:30N 47°38' W 122°23'0 0.0
2017-Jun-10 13:00N 47°38' W 122°23'0 0.0
2017-Jun-10 12:30N 47°38' W 122°23'0 0.0
2017-Jun-10 12:00N 47°38' W 122°23'0 0.0
2017-Jun-10 11:30N 47°38' W 122°23'0 0.0
2017-Jun-10 11:00N 47°38' W 122°23'0 0.0
2017-Jun-10 10:30N 47°38' W 122°23'0 0.0
2017-Jun-10 10:00N 47°38' W 122°23'0 0.0
2017-Jun-10 09:30N 47°38' W 122°23'0 0.0
2017-Jun-10 09:00N 47°38' W 122°23'0 0.0
2017-Jun-10 08:30N 47°38' W 122°23'0 0.0
2017-Jun-10 08:00N 47°38' W 122°23'0 0.0
2017-Jun-10 07:30N 47°38' W 122°23'0 0.0
2017-Jun-10 07:00N 47°38' W 122°23'0 0.0
2017-Jun-10 06:30N 47°38' W 122°23'0 0.0
2017-Jun-10 06:00N 47°38' W 122°23'0 0.0
2017-Jun-10 05:30N 47°38' W 122°23'0 0.0
2017-Jun-10 05:00N 47°38' W 122°23'0 0.0
2017-Jun-10 04:30N 47°38' W 122°23'0 0.1
2017-Jun-10 04:00N 47°38' W 122°23'0 0.1
2017-Jun-10 03:30N 47°38' W 122°23'0 0.0
2017-Jun-10 03:00N 47°38' W 122°23'0 0.0
2017-Jun-10 02:30N 47°38' W 122°23'0 0.0
2017-Jun-10 02:00N 47°38' W 122°23'0 0.0
2017-Jun-10 01:30N 47°38' W 122°23'0 0.0
2017-Jun-10 01:00N 47°38' W 122°23'0 0.0
2017-Jun-10 00:30N 47°38' W 122°23'0 0.0
2017-Jun-10 00:00N 47°38' W 122°23'0 0.0
2017-Jun-09 23:30N 47°38' W 122°23'0 0.0
2017-Jun-09 23:00N 47°38' W 122°23'0 0.0
2017-Jun-09 22:30N 47°38' W 122°23'0 0.0
2017-Jun-09 22:00N 47°38' W 122°23'0 0.1
2017-Jun-09 21:30N 47°38' W 122°23'0 0.0
2017-Jun-09 21:00N 47°38' W 122°23'0 0.1
2017-Jun-09 20:30N 47°38' W 122°23'0 0.0
2017-Jun-09 20:00N 47°38' W 122°23'0 0.1
2017-Jun-09 19:30N 47°38' W 122°23'0 0.1
2017-Jun-09 19:00N 47°38' W 122°23'0 0.0
2017-Jun-09 18:30N 47°38' W 122°23'0 0.0
2017-Jun-09 18:00N 47°38' W 122°23'0 0.0
2017-Jun-09 17:30N 47°38' W 122°23'0 0.0
2017-Jun-09 17:00N 47°38' W 122°23'0 0.0
2017-Jun-09 16:30N 47°38' W 122°23'0 0.0
2017-Jun-09 16:00N 47°38' W 122°23'0 0.0
2017-Jun-09 15:30N 47°38' W 122°23'0 0.0
2017-Jun-09 15:00N 47°38' W 122°23'0 0.0
2017-Jun-09 14:30N 47°38' W 122°23'0 0.0
2017-Jun-09 13:30N 47°38' W 122°23'0 0.1
2017-Jun-09 13:00N 47°38' W 122°23'0 0.0
2017-Jun-09 12:30N 47°38' W 122°23'0 0.1
2017-Jun-09 12:00N 47°38' W 122°23'0 0.1
2017-Jun-09 11:30N 47°38' W 122°23'0 0.1
2017-Jun-09 11:00N 47°38' W 122°23'0 0.0
2017-Jun-09 10:31N 47°38' W 122°23'0 0.0
2017-Jun-09 10:00N 47°38' W 122°23'0 0.0
2017-Jun-09 09:30N 47°38' W 122°23'0 0.0
2017-Jun-09 09:00N 47°38' W 122°23'0 0.0
2017-Jun-09 08:30N 47°38' W 122°23'0 0.0
2017-Jun-09 08:00N 47°38' W 122°23'0 0.0
2017-Jun-09 07:30N 47°38' W 122°23'0 0.0
2017-Jun-09 07:00N 47°38' W 122°23'0 0.0
2017-Jun-09 06:30N 47°38' W 122°23'0 0.0
2017-Jun-09 06:00N 47°38' W 122°23'0 0.0
2017-Jun-09 05:30N 47°38' W 122°23'0 0.0
2017-Jun-09 05:00N 47°38' W 122°23'0 0.0
2017-Jun-09 04:30N 47°38' W 122°23'0 0.0
2017-Jun-09 04:00N 47°38' W 122°23'0 0.1
2017-Jun-09 03:30N 47°38' W 122°23'0 0.0
2017-Jun-09 03:00N 47°38' W 122°23'0 0.1
2017-Jun-09 02:30N 47°38' W 122°23'0 0.0
2017-Jun-09 02:01N 47°38' W 122°23'0 0.1
2017-Jun-09 01:31N 47°38' W 122°23'0 0.1
2017-Jun-09 01:01N 47°38' W 122°23'0 0.0
2017-Jun-09 00:30N 47°38' W 122°23'0 0.0
2017-Jun-09 00:00N 47°38' W 122°23'0 0.0
2017-Jun-08 23:30N 47°38' W 122°23'0 0.0
2017-Jun-08 23:00N 47°38' W 122°23'0 0.0
2017-Jun-08 22:30N 47°38' W 122°23'0 0.0
2017-Jun-08 22:00N 47°38' W 122°23'0 0.0
2017-Jun-08 21:30N 47°38' W 122°23'0 0.0
2017-Jun-08 21:00N 47°38' W 122°23'0 0.0
2017-Jun-08 20:30N 47°38' W 122°23'0 0.0
2017-Jun-08 20:00N 47°38' W 122°23'0 0.0
2017-Jun-08 19:30N 47°38' W 122°23'0 0.0
2017-Jun-08 19:00N 47°38' W 122°23'0 0.1
2017-Jun-08 18:31N 47°38' W 122°23'0 0.1
2017-Jun-08 18:00N 47°38' W 122°23'0 0.0
2017-Jun-08 17:31N 47°38' W 122°23'0 0.0
2017-Jun-08 17:01N 47°38' W 122°23'0 0.0
2017-Jun-08 16:31N 47°38' W 122°23'0 0.0
2017-Jun-08 16:01N 47°38' W 122°23'0 0.0
2017-Jun-08 15:31N 47°38' W 122°23'0 0.0
2017-Jun-08 15:00N 47°38' W 122°23'0 0.0
2017-Jun-08 14:31N 47°38' W 122°23'0 0.0
2017-Jun-08 13:30N 47°38' W 122°23'0 0.0
2017-Jun-08 13:00N 47°38' W 122°23'0 0.0
2017-Jun-08 12:30N 47°38' W 122°23'0 0.0
2017-Jun-08 12:00N 47°38' W 122°23'0 0.0
2017-Jun-08 11:30N 47°38' W 122°23'0 0.0
2017-Jun-08 11:00N 47°38' W 122°23'0 0.0
2017-Jun-08 10:30N 47°38' W 122°23'0 0.0
2017-Jun-08 10:00N 47°38' W 122°23'0 0.0
2017-Jun-08 09:30N 47°38' W 122°23'0 0.0
2017-Jun-08 09:00N 47°38' W 122°23'0 0.0
2017-Jun-08 08:30N 47°38' W 122°23'  
Track history (hours):
 
Tides and Currents Weather Stations Pressure Air Temp Water Temp Dewpoint Dewpoint Depression Visibility Wind Speed Wind Dir Waves Ship Positions

Ocean Fresh

Owner: Ocean Fresh Seafood company, Seattle, WA. More information available from US FCC via Universal Licensing System and Coast Guard Vessel Documentation Center.

Last reported at 2017-Jun-18 08:08 UTC. Time now 2017-Jul-21 18:57 UTC.
Position N 58°20' W 136°05'.
Warning: this ship's position is 33 days out of date.

Length 67 m; draft 4.5 m.

Type: Ship (hazmat cat A). MMSI: 367773000.

Date/timePositionNaut miles runAvg speedWind from/ knotsBaromVisibWave heightAir tempDewpointWater temp
2017-Jun-18 08:08N 58°20' W 136°05'214.1
2017-Jun-18 08:00N 58°20' W 136°02'43610.2
2017-Jun-16 13:14N 52°29' W 128°27'312.6
2017-Jun-16 13:00N 52°26' W 128°29'611.7
2017-Jun-16 12:29N 52°20' W 128°30'511.3
2017-Jun-16 12:00N 52°16' W 128°25'611.3
2017-Jun-16 11:26N 52°14' W 128°14'6 8.3
2017-Jun-16 10:40N 52°09' W 128°08'1 9.3
2017-Jun-16 10:30N 52°08' W 128°08'4 7.7
2017-Jun-16 10:01N 52°05' W 128°04'5 8.5
2017-Jun-16 09:23N 52°04' W 127°56'512.4
2017-Jun-16 08:59N 51°59' W 127°56'612.4
2017-Jun-16 08:30N 51°53' W 127°57'611.4
2017-Jun-16 08:01N 51°47' W 127°56'612.2
2017-Jun-16 07:30N 51°41' W 127°55'612.5
2017-Jun-16 07:01N 51°35' W 127°53'611.8
2017-Jun-16 06:30N 51°29' W 127°51'611.7
2017-Jun-16 05:58N 51°23' W 127°52'811.5
2017-Jun-16 05:17N 51°15' W 127°52'311.1
2017-Jun-16 05:00N 51°12' W 127°51'9311.7
2017-Jun-15 21:04N 50°23' W 125°46'1313.6
2017-Jun-15 20:09N 50°20' W 125°27'211.1
2017-Jun-15 20:00N 50°19' W 125°25'613.2
2017-Jun-15 19:30N 50°13' W 125°22'713.8
2017-Jun-15 19:00N 50°07' W 125°18'714.7
2017-Jun-15 18:30N 50°00' W 125°13'612.6
2017-Jun-15 18:00N 49°56' W 125°05'612.3
2017-Jun-15 17:30N 49°51' W 124°59'612.4
2017-Jun-15 17:00N 49°47' W 124°52'612.7
2017-Jun-15 16:30N 49°44' W 124°44'612.7
2017-Jun-15 16:00N 49°40' W 124°36'712.8
2017-Jun-15 15:29N 49°36' W 124°27'1912.7
2017-Jun-15 14:00N 49°26' W 124°02'812.8
2017-Jun-15 13:24N 49°22' W 123°53'512.4
2017-Jun-15 12:59N 49°19' W 123°46'712.2
2017-Jun-15 12:27N 49°15' W 123°39'512.3
2017-Jun-15 12:00N 49°11' W 123°33'612.6
2017-Jun-15 11:30N 49°06' W 123°25'612.3
2017-Jun-15 11:00N 49°03' W 123°18'611.8
2017-Jun-15 10:30N 48°59' W 123°11'611.6
2017-Jun-15 10:00N 48°55' W 123°04'1511.9
2017-Jun-15 08:44N 48°46' W 122°47'210.8
2017-Jun-15 08:30N 48°44' W 122°45'510.1
2017-Jun-15 08:00N 48°39' W 122°43'5 9.9
2017-Jun-15 07:30N 48°34' W 122°45'611.4
2017-Jun-15 07:00N 48°28' W 122°44'711.8
2017-Jun-15 06:23N 48°21' W 122°45'411.1
2017-Jun-15 06:00N 48°17' W 122°47'8 9.8
2017-Jun-15 05:13N 48°10' W 122°43'311.9
2017-Jun-15 04:58N 48°07' W 122°40'511.0
2017-Jun-15 04:30N 48°02' W 122°38'510.3
2017-Jun-15 04:00N 47°58' W 122°34'510.6
2017-Jun-15 03:30N 47°54' W 122°28'611.2
2017-Jun-15 03:00N 47°49' W 122°26'611.4
2017-Jun-15 02:30N 47°43' W 122°26'510.6
2017-Jun-15 02:00N 47°38' W 122°25'1 3.0
2017-Jun-15 01:30N 47°38' W 122°23'0 0.0
2017-Jun-15 01:00N 47°38' W 122°23'0 0.0
2017-Jun-15 00:30N 47°38' W 122°23'0 0.0
2017-Jun-15 00:00N 47°38' W 122°23'0 0.0
2017-Jun-14 23:30N 47°38' W 122°23'0 0.0
2017-Jun-14 23:00N 47°38' W 122°23'0 0.0
2017-Jun-14 22:30N 47°38' W 122°23'0 0.0
2017-Jun-14 22:00N 47°38' W 122°23'0 0.0
2017-Jun-14 21:30N 47°38' W 122°23'0 0.0
2017-Jun-14 21:00N 47°38' W 122°23'0 0.0
2017-Jun-14 20:30N 47°38' W 122°23'0 0.0
2017-Jun-14 20:00N 47°38' W 122°23'0 0.0
2017-Jun-14 19:30N 47°38' W 122°23'0 0.0
2017-Jun-14 19:00N 47°38' W 122°23'0 0.0
2017-Jun-14 18:30N 47°38' W 122°23'0 0.0
2017-Jun-14 18:00N 47°38' W 122°23'0 0.0
2017-Jun-14 17:30N 47°38' W 122°23'0 0.0
2017-Jun-14 17:00N 47°38' W 122°23'0 0.0
2017-Jun-14 16:30N 47°38' W 122°23'0 0.0
2017-Jun-14 16:00N 47°38' W 122°23'0 0.0
2017-Jun-14 15:30N 47°38' W 122°23'0 0.0
2017-Jun-14 15:00N 47°38' W 122°23'0 0.0
2017-Jun-14 14:30N 47°38' W 122°23'0 0.0
2017-Jun-14 13:30N 47°38' W 122°23'0 0.0
2017-Jun-14 13:00N 47°38' W 122°23'0 0.0
2017-Jun-14 12:30N 47°38' W 122°23'0 0.0
2017-Jun-14 12:00N 47°38' W 122°23'0 0.0
2017-Jun-14 11:30N 47°38' W 122°23'0 0.0
2017-Jun-14 11:00N 47°38' W 122°23'0 0.0
2017-Jun-14 10:30N 47°38' W 122°23'0 0.0
2017-Jun-14 10:00N 47°38' W 122°23'0 0.0
2017-Jun-14 09:30N 47°38' W 122°23'0 0.0
2017-Jun-14 09:00N 47°38' W 122°23'0 0.0
2017-Jun-14 08:30N 47°38' W 122°23'0 0.0
2017-Jun-14 08:00N 47°38' W 122°23'0 0.0
2017-Jun-14 07:30N 47°38' W 122°23'0 0.0
2017-Jun-14 07:00N 47°38' W 122°23'0 0.1
2017-Jun-14 06:30N 47°38' W 122°23'0 0.1
2017-Jun-14 06:00N 47°38' W 122°23'0 0.0
2017-Jun-14 05:30N 47°38' W 122°23'0 0.0
2017-Jun-14 05:00N 47°38' W 122°23'0 0.0
2017-Jun-14 04:30N 47°38' W 122°23'0 0.0
2017-Jun-14 04:00N 47°38' W 122°23'0 0.0
2017-Jun-14 03:30N 47°38' W 122°23'0 0.0
2017-Jun-14 03:00N 47°38' W 122°23'0 0.0
2017-Jun-14 02:30N 47°38' W 122°23'0 0.0
2017-Jun-14 02:00N 47°38' W 122°23'0 0.0
2017-Jun-14 01:30N 47°38' W 122°23'0 0.0
2017-Jun-14 01:00N 47°38' W 122°23'0 0.0
2017-Jun-14 00:30N 47°38' W 122°23'0 0.0
2017-Jun-14 00:00N 47°38' W 122°23'0 0.0
2017-Jun-13 23:30N 47°38' W 122°23'0 0.0
2017-Jun-13 23:00N 47°38' W 122°23'0 0.0
2017-Jun-13 22:30N 47°38' W 122°23'0 0.0
2017-Jun-13 22:00N 47°38' W 122°23'0 0.0
2017-Jun-13 21:30N 47°38' W 122°23'0 0.1
2017-Jun-13 21:00N 47°38' W 122°23'0 0.1
2017-Jun-13 20:30N 47°38' W 122°23'0 0.0
2017-Jun-13 20:00N 47°38' W 122°23'0 0.0
2017-Jun-13 19:30N 47°38' W 122°23'0 0.0
2017-Jun-13 19:00N 47°38' W 122°23'0 0.1
2017-Jun-13 18:30N 47°38' W 122°23'0 0.1
2017-Jun-13 18:00N 47°38' W 122°23'0 0.0
2017-Jun-13 17:30N 47°38' W 122°23'0 0.0
2017-Jun-13 17:00N 47°38' W 122°23'0 0.0
2017-Jun-13 16:30N 47°38' W 122°23'0 0.0
2017-Jun-13 16:00N 47°38' W 122°23'0 0.0
2017-Jun-13 15:30N 47°38' W 122°23'0 0.0
2017-Jun-13 15:00N 47°38' W 122°23'0 0.0
2017-Jun-13 14:00N 47°38' W 122°23'0 0.0
2017-Jun-13 13:30N 47°38' W 122°23'0 0.0
2017-Jun-13 13:00N 47°38' W 122°23'0 0.0
2017-Jun-13 12:30N 47°38' W 122°23'0 0.0
2017-Jun-13 12:00N 47°38' W 122°23'0 0.0
2017-Jun-13 11:30N 47°38' W 122°23'0 0.0
2017-Jun-13 11:00N 47°38' W 122°23'0 0.0
2017-Jun-13 10:30N 47°38' W 122°23'0 0.0
2017-Jun-13 10:00N 47°38' W 122°23'0 0.0
2017-Jun-13 09:30N 47°38' W 122°23'0 0.0
2017-Jun-13 09:00N 47°38' W 122°23'0 0.0
2017-Jun-13 08:30N 47°38' W 122°23'0 0.0
2017-Jun-13 08:00N 47°38' W 122°23'0 0.0
2017-Jun-13 07:30N 47°38' W 122°23'0 0.0
2017-Jun-13 07:00N 47°38' W 122°23'0 0.0
2017-Jun-13 06:30N 47°38' W 122°23'0 0.0
2017-Jun-13 06:00N 47°38' W 122°23'0 0.0
2017-Jun-13 05:30N 47°38' W 122°23'0 0.0
2017-Jun-13 05:00N 47°38' W 122°23'0 0.0
2017-Jun-13 04:30N 47°38' W 122°23'0 0.1
2017-Jun-13 04:00N 47°38' W 122°23'0 0.1
2017-Jun-13 03:30N 47°38' W 122°23'0 0.0
2017-Jun-13 03:00N 47°38' W 122°23'0 0.0
2017-Jun-13 02:30N 47°38' W 122°23'0 0.0
2017-Jun-13 02:00N 47°38' W 122°23'0 0.1
2017-Jun-13 01:30N 47°38' W 122°23'0 0.1
2017-Jun-13 01:00N 47°38' W 122°23'0 0.0
2017-Jun-13 00:30N 47°38' W 122°23'0 0.0
2017-Jun-13 00:00N 47°38' W 122°23'0 0.0
2017-Jun-12 23:30N 47°38' W 122°23'0 0.0
2017-Jun-12 23:01N 47°38' W 122°23'0 0.0
2017-Jun-12 22:30N 47°38' W 122°23'0 0.0
2017-Jun-12 22:00N 47°38' W 122°23'0 0.0
2017-Jun-12 21:30N 47°38' W 122°23'0 0.0
2017-Jun-12 21:00N 47°38' W 122°23'0 0.0
2017-Jun-12 20:30N 47°38' W 122°23'0 0.1
2017-Jun-12 20:00N 47°38' W 122°23'0 0.1
2017-Jun-12 19:30N 47°38' W 122°23'0 0.0
2017-Jun-12 19:00N 47°38' W 122°23'0 0.0
2017-Jun-12 18:30N 47°38' W 122°23'0 0.1
2017-Jun-12 18:00N 47°38' W 122°23'0 0.1
2017-Jun-12 17:30N 47°38' W 122°23'0 0.0
2017-Jun-12 17:00N 47°38' W 122°23'0 0.0
2017-Jun-12 16:30N 47°38' W 122°23'0 0.0
2017-Jun-12 16:00N 47°38' W 122°23'0 0.1
2017-Jun-12 15:30N 47°38' W 122°23'0 0.1
2017-Jun-12 15:00N 47°38' W 122°23'0 0.0
2017-Jun-12 14:30N 47°38' W 122°23'0 0.0
2017-Jun-12 13:30N 47°38' W 122°23'0 0.0
2017-Jun-12 13:00N 47°38' W 122°23'0 0.0
2017-Jun-12 12:30N 47°38' W 122°23'0 0.0
2017-Jun-12 12:00N 47°38' W 122°23'0 0.0
2017-Jun-12 11:30N 47°38' W 122°23'0 0.1
2017-Jun-12 11:00N 47°38' W 122°23'0 0.1
2017-Jun-12 10:31N 47°38' W 122°23'0 0.0
2017-Jun-12 10:00N 47°38' W 122°23'0 0.0
2017-Jun-12 09:30N 47°38' W 122°23'0 0.0
2017-Jun-12 09:00N 47°38' W 122°23'0 0.0
2017-Jun-12 08:30N 47°38' W 122°23'0 0.0
2017-Jun-12 08:00N 47°38' W 122°23'0 0.0
2017-Jun-12 07:30N 47°38' W 122°23'0 0.0
2017-Jun-12 07:00N 47°38' W 122°23'0 0.0
2017-Jun-12 06:30N 47°38' W 122°23'0 0.0
2017-Jun-12 06:00N 47°38' W 122°23'0 0.0
2017-Jun-12 05:30N 47°38' W 122°23'0 0.0
2017-Jun-12 05:00N 47°38' W 122°23'0 0.0
2017-Jun-12 04:31N 47°38' W 122°23'0 0.0
2017-Jun-12 04:00N 47°38' W 122°23'0 0.0
2017-Jun-12 03:30N 47°38' W 122°23'0 0.0
2017-Jun-12 03:00N 47°38' W 122°23'0 0.0
2017-Jun-12 02:30N 47°38' W 122°23'0 0.0
2017-Jun-12 02:00N 47°38' W 122°23'0 0.0
2017-Jun-12 01:30N 47°38' W 122°23'0 0.0
2017-Jun-12 01:00N 47°38' W 122°23'0 0.0
2017-Jun-12 00:30N 47°38' W 122°23'0 0.1
2017-Jun-12 00:00N 47°38' W 122°23'0 0.1
2017-Jun-11 23:30N 47°38' W 122°23'0 0.0
2017-Jun-11 23:00N 47°38' W 122°23'0 0.0
2017-Jun-11 22:30N 47°38' W 122°23'0 0.0
2017-Jun-11 22:00N 47°38' W 122°23'0 0.1
2017-Jun-11 21:30N 47°38' W 122°23'0 0.1
2017-Jun-11 21:01N 47°38' W 122°23'0 0.0
2017-Jun-11 20:30N 47°38' W 122°23'0 0.0
2017-Jun-11 20:00N 47°38' W 122°23'0 0.0
2017-Jun-11 19:30N 47°38' W 122°23'0 0.1
2017-Jun-11 19:00N 47°38' W 122°23'0 0.1
2017-Jun-11 18:30N 47°38' W 122°23'0 0.0
2017-Jun-11 18:00N 47°38' W 122°23'0 0.0
2017-Jun-11 17:30N 47°38' W 122°23'0 0.0
2017-Jun-11 17:00N 47°38' W 122°23'0 0.0
2017-Jun-11 16:30N 47°38' W 122°23'0 0.0
2017-Jun-11 16:00N 47°38' W 122°23'0 0.0
2017-Jun-11 15:30N 47°38' W 122°23'0 0.0
2017-Jun-11 15:00N 47°38' W 122°23'0 0.0
2017-Jun-11 14:00N 47°38' W 122°23'0 0.0
2017-Jun-11 13:30N 47°38' W 122°23'0 0.0
2017-Jun-11 13:00N 47°38' W 122°23'0 0.0
2017-Jun-11 12:30N 47°38' W 122°23'0 0.0
2017-Jun-11 12:00N 47°38' W 122°23'0 0.0
2017-Jun-11 11:30N 47°38' W 122°23'0 0.0
2017-Jun-11 11:00N 47°38' W 122°23'0 0.0
2017-Jun-11 10:30N 47°38' W 122°23'0 0.0
2017-Jun-11 10:00N 47°38' W 122°23'0 0.0
2017-Jun-11 09:30N 47°38' W 122°23'0 0.0
2017-Jun-11 09:00N 47°38' W 122°23'0 0.0
2017-Jun-11 08:30N 47°38' W 122°23'0 0.0
2017-Jun-11 08:00N 47°38' W 122°23'0 0.0
2017-Jun-11 07:30N 47°38' W 122°23'0 0.0
2017-Jun-11 07:00N 47°38' W 122°23'0 0.0
2017-Jun-11 06:30N 47°38' W 122°23'0 0.0
2017-Jun-11 06:00N 47°38' W 122°23'0 0.0
2017-Jun-11 05:30N 47°38' W 122°23'0 0.0
2017-Jun-11 05:00N 47°38' W 122°23'0 0.0
2017-Jun-11 04:30N 47°38' W 122°23'0 0.0
2017-Jun-11 04:00N 47°38' W 122°23'0 0.0
2017-Jun-11 03:30N 47°38' W 122°23'0 0.0
2017-Jun-11 03:00N 47°38' W 122°23'0 0.0
2017-Jun-11 02:30N 47°38' W 122°23'0 0.0
2017-Jun-11 02:00N 47°38' W 122°23'0 0.0
2017-Jun-11 01:30N 47°38' W 122°23'0 0.1
2017-Jun-11 01:00N 47°38' W 122°23'0 0.1
2017-Jun-11 00:30N 47°38' W 122°23'0 0.0
2017-Jun-11 00:00N 47°38' W 122°23'0 0.0
2017-Jun-10 23:30N 47°38' W 122°23'0 0.0
2017-Jun-10 23:00N 47°38' W 122°23'0 0.0
2017-Jun-10 22:30N 47°38' W 122°23'0 0.1
2017-Jun-10 22:00N 47°38' W 122°23'0 0.1
2017-Jun-10 21:30N 47°38' W 122°23'0 0.0
2017-Jun-10 21:00N 47°38' W 122°23'0 0.0
2017-Jun-10 20:30N 47°38' W 122°23'0 0.0
2017-Jun-10 20:00N 47°38' W 122°23'0 0.0
2017-Jun-10 19:30N 47°38' W 122°23'0 0.0
2017-Jun-10 19:00N 47°38' W 122°23'0 0.1
2017-Jun-10 18:30N 47°38' W 122°23'0 0.1
2017-Jun-10 18:00N 47°38' W 122°23'0 0.0
2017-Jun-10 17:30N 47°38' W 122°23'0 0.0
2017-Jun-10 17:01N 47°38' W 122°23'0 0.0
2017-Jun-10 16:30N 47°38' W 122°23'0 0.0
2017-Jun-10 16:00N 47°38' W 122°23'0 0.0
2017-Jun-10 15:30N 47°38' W 122°23'0 0.0
2017-Jun-10 15:00N 47°38' W 122°23'0 0.0
2017-Jun-10 14:00N 47°38' W 122°23'0 0.0
2017-Jun-10 13:30N 47°38' W 122°23'0 0.0
2017-Jun-10 13:00N 47°38' W 122°23'0 0.0
2017-Jun-10 12:30N 47°38' W 122°23'0 0.0
2017-Jun-10 12:00N 47°38' W 122°23'0 0.0
2017-Jun-10 11:30N 47°38' W 122°23'0 0.0
2017-Jun-10 11:00N 47°38' W 122°23'0 0.0
2017-Jun-10 10:30N 47°38' W 122°23'0 0.0
2017-Jun-10 10:00N 47°38' W 122°23'0 0.0
2017-Jun-10 09:30N 47°38' W 122°23'0 0.0
2017-Jun-10 09:00N 47°38' W 122°23'0 0.0
2017-Jun-10 08:30N 47°38' W 122°23'0 0.0
2017-Jun-10 08:00N 47°38' W 122°23'0 0.0
2017-Jun-10 07:30N 47°38' W 122°23'0 0.0
2017-Jun-10 07:00N 47°38' W 122°23'0 0.0
2017-Jun-10 06:30N 47°38' W 122°23'0 0.0
2017-Jun-10 06:00N 47°38' W 122°23'0 0.0
2017-Jun-10 05:30N 47°38' W 122°23'0 0.0
2017-Jun-10 05:00N 47°38' W 122°23'0 0.0
2017-Jun-10 04:30N 47°38' W 122°23'0 0.1
2017-Jun-10 04:00N 47°38' W 122°23'0 0.1
2017-Jun-10 03:30N 47°38' W 122°23'0 0.0
2017-Jun-10 03:00N 47°38' W 122°23'0 0.0
2017-Jun-10 02:30N 47°38' W 122°23'0 0.0
2017-Jun-10 02:00N 47°38' W 122°23'0 0.0
2017-Jun-10 01:30N 47°38' W 122°23'0 0.0
2017-Jun-10 01:00N 47°38' W 122°23'0 0.0
2017-Jun-10 00:30N 47°38' W 122°23'0 0.0
2017-Jun-10 00:00N 47°38' W 122°23'0 0.0
2017-Jun-09 23:30N 47°38' W 122°23'0 0.0
2017-Jun-09 23:00N 47°38' W 122°23'0 0.0
2017-Jun-09 22:30N 47°38' W 122°23'0 0.0
2017-Jun-09 22:00N 47°38' W 122°23'0 0.1
2017-Jun-09 21:30N 47°38' W 122°23'0 0.0
2017-Jun-09 21:00N 47°38' W 122°23'0 0.1
2017-Jun-09 20:30N 47°38' W 122°23'0 0.0
2017-Jun-09 20:00N 47°38' W 122°23'0 0.1
2017-Jun-09 19:30N 47°38' W 122°23'0 0.1
2017-Jun-09 19:00N 47°38' W 122°23'0 0.0
2017-Jun-09 18:30N 47°38' W 122°23'0 0.0
2017-Jun-09 18:00N 47°38' W 122°23'0 0.0
2017-Jun-09 17:30N 47°38' W 122°23'0 0.0
2017-Jun-09 17:00N 47°38' W 122°23'0 0.0
2017-Jun-09 16:30N 47°38' W 122°23'0 0.0
2017-Jun-09 16:00N 47°38' W 122°23'0 0.0
2017-Jun-09 15:30N 47°38' W 122°23'0 0.0
2017-Jun-09 15:00N 47°38' W 122°23'0 0.0
2017-Jun-09 14:30N 47°38' W 122°23'0 0.0
2017-Jun-09 13:30N 47°38' W 122°23'0 0.1
2017-Jun-09 13:00N 47°38' W 122°23'0 0.0
2017-Jun-09 12:30N 47°38' W 122°23'0 0.1
2017-Jun-09 12:00N 47°38' W 122°23'0 0.1
2017-Jun-09 11:30N 47°38' W 122°23'0 0.1
2017-Jun-09 11:00N 47°38' W 122°23'0 0.0
2017-Jun-09 10:31N 47°38' W 122°23'0 0.0
2017-Jun-09 10:00N 47°38' W 122°23'0 0.0
2017-Jun-09 09:30N 47°38' W 122°23'0 0.0
2017-Jun-09 09:00N 47°38' W 122°23'0 0.0
2017-Jun-09 08:30N 47°38' W 122°23'0 0.0
2017-Jun-09 08:00N 47°38' W 122°23'0 0.0
2017-Jun-09 07:30N 47°38' W 122°23'0 0.0
2017-Jun-09 07:00N 47°38' W 122°23'0 0.0
2017-Jun-09 06:30N 47°38' W 122°23'0 0.0
2017-Jun-09 06:00N 47°38' W 122°23'0 0.0
2017-Jun-09 05:30N 47°38' W 122°23'0 0.0
2017-Jun-09 05:00N 47°38' W 122°23'0 0.0
2017-Jun-09 04:30N 47°38' W 122°23'0 0.0
2017-Jun-09 04:00N 47°38' W 122°23'0 0.1
2017-Jun-09 03:30N 47°38' W 122°23'0 0.0
2017-Jun-09 03:00N 47°38' W 122°23'0 0.1
2017-Jun-09 02:30N 47°38' W 122°23'0 0.0
2017-Jun-09 02:01N 47°38' W 122°23'0 0.1
2017-Jun-09 01:31N 47°38' W 122°23'0 0.1
2017-Jun-09 01:01N 47°38' W 122°23'0 0.0
2017-Jun-09 00:30N 47°38' W 122°23'0 0.0
2017-Jun-09 00:00N 47°38' W 122°23'0 0.0
2017-Jun-08 23:30N 47°38' W 122°23'0 0.0
2017-Jun-08 23:00N 47°38' W 122°23'0 0.0
2017-Jun-08 22:30N 47°38' W 122°23'0 0.0
2017-Jun-08 22:00N 47°38' W 122°23'0 0.0
2017-Jun-08 21:30N 47°38' W 122°23'0 0.0
2017-Jun-08 21:00N 47°38' W 122°23'0 0.0
2017-Jun-08 20:30N 47°38' W 122°23'0 0.0
2017-Jun-08 20:00N 47°38' W 122°23'0 0.0
2017-Jun-08 19:30N 47°38' W 122°23'0 0.0
2017-Jun-08 19:00N 47°38' W 122°23'0 0.1
2017-Jun-08 18:31N 47°38' W 122°23'0 0.1
2017-Jun-08 18:00N 47°38' W 122°23'0 0.0
2017-Jun-08 17:31N 47°38' W 122°23'0 0.0
2017-Jun-08 17:01N 47°38' W 122°23'0 0.0
2017-Jun-08 16:31N 47°38' W 122°23'0 0.0
2017-Jun-08 16:01N 47°38' W 122°23'0 0.0
2017-Jun-08 15:31N 47°38' W 122°23'0 0.0
2017-Jun-08 15:00N 47°38' W 122°23'0 0.0
2017-Jun-08 14:31N 47°38' W 122°23'0 0.0
2017-Jun-08 13:30N 47°38' W 122°23'0 0.0
2017-Jun-08 13:00N 47°38' W 122°23'0 0.0
2017-Jun-08 12:30N 47°38' W 122°23'0 0.0
2017-Jun-08 12:00N 47°38' W 122°23'0 0.0
2017-Jun-08 11:30N 47°38' W 122°23'0 0.0
2017-Jun-08 11:00N 47°38' W 122°23'0 0.0
2017-Jun-08 10:30N 47°38' W 122°23'0 0.0
2017-Jun-08 10:00N 47°38' W 122°23'0 0.0
2017-Jun-08 09:30N 47°38' W 122°23'0 0.0
2017-Jun-08 09:00N 47°38' W 122°23'0 0.0
2017-Jun-08 08:30N 47°38' W 122°23'  

Dump ship's entire track history